Time;durP1;ratioP1;P1;durP2;ratioP2;P2;SDS_P1;SDS_P2;PMS_P1;PMS_P2;Temp;Humidity;BMP_temperature;BMP_pressure;BME280_temperature;BME280_humidity;BME280_pressure;Samples;Min_cycle;Max_cycle;Signal;HPM_P1;HPM_P2
2021/11/14 00:01:34;;;;;;;0.20;0.20;;;10.10;99.90;;;;;;5056355;28;20176;-68
2021/11/14 00:04:01;;;;;;;0.27;0.23;;;9.90;99.90;;;;;;5056332;28;20268;-69
2021/11/14 00:06:27;;;;;;;0.20;0.17;;;9.90;99.90;;;;;;5056426;28;20214;-67
2021/11/14 00:08:53;;;;;;;0.32;0.32;;;9.90;99.90;;;;;;5056210;28;20262;-67
2021/11/14 00:11:20;;;;;;;0.20;0.20;;;9.90;99.90;;;;;;5056566;28;20280;-68
2021/11/14 00:13:48;;;;;;;0.50;0.50;;;9.80;99.90;;;;;;5072068;28;20177;-67
2021/11/14 00:16:20;;;;;;;0.30;0.20;;;9.90;99.90;;;;;;5056447;28;20609;-69
2021/11/14 00:18:45;;;;;;;0.30;0.10;;;10.10;99.90;;;;;;5056060;28;20211;-69
2021/11/14 00:21:15;;;;;;;1.90;1.80;;;10.00;99.90;;;;;;5056366;28;20271;-65
2021/11/14 00:23:40;;;;;;;0.30;0.30;;;9.90;99.90;;;;;;5056337;28;20618;-65
2021/11/14 00:26:06;;;;;;;0.30;0.20;;;10.00;99.90;;;;;;5054705;28;20264;-69
2021/11/14 00:28:32;;;;;;;1.67;1.60;;;9.70;99.90;;;;;;5055953;28;20184;-68
2021/11/14 00:30:58;;;;;;;0.63;0.63;;;9.80;99.90;;;;;;5056304;28;20266;-66
2021/11/14 00:33:23;;;;;;;0.20;0.10;;;9.90;99.90;;;;;;5055961;28;20513;-66
2021/11/14 00:35:52;;;;;;;0.30;0.10;;;10.00;99.90;;;;;;5055324;28;20492;-66
2021/11/14 00:38:22;;;;;;;0.20;0.20;;;10.00;99.90;;;;;;5056033;28;20606;-65
2021/11/14 00:40:48;;;;;;;0.30;0.30;;;9.90;99.90;;;;;;5056272;28;20181;-67
2021/11/14 00:43:14;;;;;;;0.40;0.40;;;9.80;99.90;;;;;;5055048;28;20617;-67
2021/11/14 00:45:40;;;;;;;0.20;0.20;;;9.70;99.90;;;;;;5055970;28;20329;-67
2021/11/14 00:48:07;;;;;;;0.20;0.15;;;9.90;99.90;;;;;;5054801;28;20187;-69
2021/11/14 00:50:34;;;;;;;0.40;0.40;;;9.80;99.90;;;;;;5055790;28;20258;-66
2021/11/14 00:53:01;;;;;;;2.35;2.25;;;9.50;99.90;;;;;;5055519;28;20645;-66
2021/11/14 00:55:30;;;;;;;0.20;0.20;;;9.50;99.90;;;;;;5055768;28;20609;-64
2021/11/14 00:57:55;;;;;;;5.07;4.00;;;9.60;99.90;;;;;;5055661;28;20191;-65
2021/11/14 01:00:27;;;;;;;0.20;0.20;;;9.40;99.90;;;;;;5054665;28;20185;-65
2021/11/14 01:02:52;;;;;;;0.20;0.10;;;9.40;99.90;;;;;;5055983;28;20552;-66
2021/11/14 01:05:20;;;;;;;0.20;0.20;;;9.70;99.90;;;;;;5055554;28;20203;-65
2021/11/14 01:07:46;;;;;;;0.20;0.20;;;9.90;99.90;;;;;;5055566;28;20181;-64
2021/11/14 01:10:17;;;;;;;0.20;0.10;;;10.00;99.90;;;;;;5055863;28;20177;-66
2021/11/14 01:12:43;;;;;;;2.63;2.42;;;9.90;99.90;;;;;;5054563;28;20195;-66
2021/11/14 01:15:11;;;;;;;2.25;2.05;;;9.80;99.90;;;;;;5055648;28;20179;-64
2021/11/14 01:17:39;;;;;;;0.30;0.30;;;9.70;99.90;;;;;;5056361;28;20536;-64
2021/11/14 01:20:08;;;;;;;1.30;0.68;;;9.40;99.90;;;;;;5055374;28;20183;-67
2021/11/14 01:22:34;;;;;;;0.20;0.20;;;9.40;99.90;;;;;;5055611;28;20589;-66
2021/11/14 01:24:59;;;;;;;0.30;0.30;;;9.40;99.90;;;;;;5055275;28;20295;-67
2021/11/14 01:27:25;;;;;;;6.70;6.30;;;9.30;99.90;;;;;;5055548;28;20172;-64
2021/11/14 01:29:50;;;;;;;0.33;0.33;;;9.30;99.90;;;;;;5054943;28;20313;-65
2021/11/14 01:32:16;;;;;;;7.50;2.50;;;9.00;99.90;;;;;;5055157;28;20532;-64
2021/11/14 01:34:42;;;;;;;3.57;3.27;;;9.10;99.90;;;;;;5055010;28;20266;-64
2021/11/14 01:37:07;;;;;;;2.73;2.60;;;8.90;99.90;;;;;;5055720;28;20228;-65
2021/11/14 01:39:33;;;;;;;0.20;0.20;;;9.10;99.90;;;;;;5055249;28;20208;-67
2021/11/14 01:41:59;;;;;;;0.20;0.20;;;9.30;99.90;;;;;;5055453;28;20181;-65
2021/11/14 01:44:24;;;;;;;0.20;0.20;;;9.50;99.90;;;;;;5054517;28;20283;-67
2021/11/14 01:46:51;;;;;;;1.30;1.30;;;9.40;99.90;;;;;;5055352;28;20169;-65
2021/11/14 01:49:16;;;;;;;0.20;0.10;;;9.20;99.90;;;;;;5055110;28;20176;-65
2021/11/14 01:51:42;;;;;;;1.33;1.30;;;9.40;99.90;;;;;;5055113;28;20180;-65
2021/11/14 01:54:08;;;;;;;0.23;0.23;;;9.40;99.90;;;;;;5055347;28;20193;-66
2021/11/14 01:56:33;;;;;;;0.43;0.43;;;8.90;99.90;;;;;;5054269;28;20279;-67
2021/11/14 01:58:59;;;;;;;2.53;2.33;;;8.70;99.90;;;;;;5055336;28;20270;-66
2021/11/14 02:01:32;;;;;;;3.40;3.10;;;8.70;99.90;;;;;;5055513;28;20181;-64
2021/11/14 02:04:02;;;;;;;0.60;0.57;;;8.60;99.90;;;;;;5055483;28;20177;-65
2021/11/14 02:06:29;;;;;;;0.30;0.20;;;8.80;99.90;;;;;;5054158;28;20207;-67
2021/11/14 02:08:56;;;;;;;0.30;0.30;;;8.50;99.90;;;;;;5054885;28;20219;-65
2021/11/14 02:11:23;;;;;;;0.68;0.68;;;8.60;99.90;;;;;;5055076;28;20180;-66
2021/11/14 02:13:50;;;;;;;35.38;25.63;;;8.70;99.90;;;;;;5037364;28;20509;-66
2021/11/14 02:16:18;;;;;;;2.05;1.95;;;9.00;99.90;;;;;;5053682;28;20179;-65
2021/11/14 02:18:44;;;;;;;0.40;0.40;;;8.80;99.90;;;;;;5053596;28;20203;-65
2021/11/14 02:21:10;;;;;;;0.20;0.20;;;8.70;99.90;;;;;;5054888;28;20609;-65
2021/11/14 02:23:36;;;;;;;0.93;0.85;;;9.10;99.90;;;;;;5054719;28;20191;-64
2021/11/14 02:26:02;;;;;;;2.17;2.15;;;8.90;99.90;;;;;;5054548;28;20207;-64
2021/11/14 02:28:28;;;;;;;0.20;0.20;;;9.20;99.90;;;;;;5054380;28;20181;-65
2021/11/14 02:30:56;;;;;;;2.13;2.03;;;9.20;99.90;;;;;;5054625;28;20191;-66
2021/11/14 02:33:23;;;;;;;2.75;2.25;;;9.10;99.90;;;;;;5054814;28;20222;-65
2021/11/14 02:35:52;;;;;;;0.95;0.95;;;9.00;99.90;;;;;;5054529;28;20177;-66
2021/11/14 02:38:20;;;;;;;0.40;0.20;;;9.30;99.90;;;;;;5054344;28;20187;-67
2021/11/14 02:40:46;;;;;;;0.90;0.90;;;9.40;99.90;;;;;;5054827;28;20192;-67
2021/11/14 02:43:13;;;;;;;0.30;0.20;;;9.50;99.90;;;;;;5053314;28;20235;-65
2021/11/14 02:45:39;;;;;;;0.20;0.10;;;9.60;99.90;;;;;;5054300;28;20205;-67
2021/11/14 02:48:08;;;;;;;0.20;0.20;;;9.60;99.90;;;;;;5054092;28;20513;-67
2021/11/14 02:50:35;;;;;;;0.20;0.10;;;9.50;99.90;;;;;;5054201;28;20542;-66
2021/11/14 02:53:00;;;;;;;1.83;1.73;;;9.50;99.90;;;;;;5053947;28;20187;-66
2021/11/14 02:55:27;;;;;;;1.33;1.17;;;9.30;99.90;;;;;;5054157;28;20224;-66
2021/11/14 02:57:54;;;;;;;0.20;0.20;;;9.00;99.90;;;;;;5052068;28;20886;-66
2021/11/14 03:00:27;;;;;;;0.20;0.20;;;9.20;99.90;;;;;;5054138;28;20203;-65
2021/11/14 03:02:53;;;;;;;1.33;1.33;;;9.30;99.90;;;;;;5054213;28;20190;-66
2021/11/14 03:05:20;;;;;;;2.92;1.42;;;9.50;99.90;;;;;;5052766;28;20318;-66
2021/11/14 03:07:48;;;;;;;0.45;0.45;;;9.30;99.90;;;;;;5054127;28;20663;-66
2021/11/14 03:10:16;;;;;;;0.80;0.80;;;8.80;99.90;;;;;;5053877;28;20504;-66
2021/11/14 03:12:55;;;;;;;0.30;0.30;;;8.70;99.90;;;;;;5054003;28;20213;-66
2021/11/14 03:15:21;;;;;;;1.83;1.75;;;8.90;99.90;;;;;;5054010;28;20175;-66
2021/11/14 03:17:47;;;;;;;3.80;1.40;;;8.90;99.90;;;;;;5052714;28;20183;-66
2021/11/14 03:20:13;;;;;;;1.17;1.17;;;8.90;99.90;;;;;;5053768;28;20184;-66
2021/11/14 03:22:38;;;;;;;2.53;2.33;;;8.80;99.90;;;;;;5053939;28;20682;-65
2021/11/14 03:25:05;;;;;;;1.63;1.53;;;8.80;99.90;;;;;;5053862;28;20931;-67
2021/11/14 03:27:30;;;;;;;0.30;0.30;;;8.80;99.90;;;;;;5053896;28;20241;-67
2021/11/14 03:29:56;;;;;;;0.50;0.50;;;8.70;99.90;;;;;;5052607;28;20196;-67
2021/11/14 03:32:22;;;;;;;0.20;0.20;;;8.70;99.90;;;;;;5053880;28;20245;-67
2021/11/14 03:34:47;;;;;;;0.20;0.20;;;8.90;99.90;;;;;;5054272;28;20509;-66
2021/11/14 03:37:20;;;;;;;0.50;0.50;;;8.90;99.90;;;;;;5053861;28;20183;-66
2021/11/14 03:39:47;;;;;;;0.85;0.85;;;8.70;99.90;;;;;;5053478;28;20629;-66
2021/11/14 03:42:13;;;;;;;0.20;0.20;;;8.70;99.90;;;;;;5053642;28;20181;-66
2021/11/14 03:44:40;;;;;;;0.20;0.20;;;8.80;99.90;;;;;;5053800;28;20184;-66
2021/11/14 03:47:07;;;;;;;0.80;0.80;;;9.00;99.90;;;;;;5069818;28;20426;-66
2021/11/14 03:49:33;;;;;;;0.20;0.10;;;9.10;99.90;;;;;;5053760;28;20188;-66
2021/11/14 03:51:59;;;;;;;0.20;0.15;;;9.30;99.90;;;;;;5053655;28;20598;-66
2021/11/14 03:54:24;;;;;;;0.20;0.20;;;9.40;99.90;;;;;;5053979;28;20206;-68
2021/11/14 03:56:50;;;;;;;1.07;0.97;;;9.10;99.90;;;;;;5053959;28;20576;-65
2021/11/14 03:59:15;;;;;;;0.20;0.20;;;9.20;99.90;;;;;;5053536;28;20184;-67
2021/11/14 04:01:41;;;;;;;0.20;0.20;;;9.10;99.90;;;;;;5053781;28;20269;-68
2021/11/14 04:04:07;;;;;;;0.20;0.20;;;9.40;99.90;;;;;;5053791;28;20204;-66
2021/11/14 04:06:33;;;;;;;0.53;0.53;;;9.60;99.90;;;;;;5053581;28;20295;-65
2021/11/14 04:09:00;;;;;;;3.08;2.17;;;9.60;99.90;;;;;;5055022;28;20187;-67
2021/11/14 04:11:25;;;;;;;3.08;2.85;;;9.40;99.90;;;;;;5057315;28;20259;-67
2021/11/14 04:13:53;;;;;;;0.20;0.20;;;9.00;99.90;;;;;;5056218;28;20216;-66
2021/11/14 04:16:19;;;;;;;0.40;0.40;;;9.10;99.90;;;;;;5072821;28;20183;-65
2021/11/14 04:18:45;;;;;;;0.20;0.10;;;8.90;99.90;;;;;;5056836;28;20271;-65
2021/11/14 04:21:11;;;;;;;0.30;0.20;;;9.00;99.90;;;;;;5057194;28;20260;-67
2021/11/14 04:23:38;;;;;;;0.20;0.20;;;9.00;99.90;;;;;;5057074;28;20251;-67
2021/11/14 04:26:04;;;;;;;0.20;0.17;;;9.00;99.90;;;;;;5056950;28;20211;-65
2021/11/14 04:28:30;;;;;;;1.95;1.85;;;9.10;99.90;;;;;;5056615;28;20208;-66
2021/11/14 04:30:56;;;;;;;0.27;0.20;;;9.00;99.90;;;;;;5056862;28;20289;-68
2021/11/14 04:33:21;;;;;;;0.27;0.20;;;8.80;99.90;;;;;;5056914;28;20591;-67
2021/11/14 04:35:48;;;;;;;0.30;0.30;;;8.90;99.90;;;;;;5056763;28;20266;-67
2021/11/14 04:38:14;;;;;;;0.20;0.20;;;9.00;99.90;;;;;;5056442;28;20429;-68
2021/11/14 04:40:42;;;;;;;0.70;0.40;;;9.10;99.90;;;;;;5055619;28;20183;-66
2021/11/14 04:43:09;;;;;;;0.50;0.50;;;8.80;99.90;;;;;;5056646;28;21111;-65
2021/11/14 04:45:35;;;;;;;1.33;1.33;;;8.90;99.90;;;;;;5056572;28;20692;-65
2021/11/14 04:48:01;;;;;;;0.20;0.20;;;9.00;99.90;;;;;;5056455;28;20295;-65
2021/11/14 04:50:27;;;;;;;0.20;0.20;;;8.80;99.90;;;;;;5056442;28;20190;-65
2021/11/14 04:52:54;;;;;;;0.20;0.10;;;8.80;99.90;;;;;;5056256;28;20200;-66
2021/11/14 04:55:20;;;;;;;20.92;2.80;;;8.80;99.90;;;;;;5056400;28;20202;-66
2021/11/14 04:57:52;;;;;;;3.10;2.22;;;8.70;99.90;;;;;;5056535;28;20181;-67
2021/11/14 05:00:28;;;;;;;1.70;1.00;;;8.50;99.90;;;;;;5055611;28;20268;-68
2021/11/14 05:02:54;;;;;;;0.20;0.10;;;8.70;99.90;;;;;;5056240;28;20505;-68
2021/11/14 05:05:21;;;;;;;1.90;1.80;;;8.70;99.90;;;;;;5056205;28;20222;-68
2021/11/14 05:07:47;;;;;;;1.40;1.30;;;8.60;99.90;;;;;;5071929;28;20242;-66
2021/11/14 05:10:13;;;;;;;0.30;0.30;;;8.60;99.90;;;;;;5055919;28;20191;-65
2021/11/14 05:12:39;;;;;;;0.20;0.20;;;8.90;99.90;;;;;;5056093;28;20173;-66
2021/11/14 05:15:06;;;;;;;0.20;0.10;;;8.90;99.90;;;;;;5055955;28;20185;-66
2021/11/14 05:17:31;;;;;;;0.20;0.20;;;8.50;99.90;;;;;;5055951;28;20633;-68
2021/11/14 05:19:57;;;;;;;0.50;0.50;;;8.70;99.90;;;;;;5055343;28;20180;-68
2021/11/14 05:22:23;;;;;;;0.87;0.87;;;8.70;99.90;;;;;;5055899;28;20196;-68
2021/11/14 05:24:48;;;;;;;0.20;0.20;;;8.70;99.90;;;;;;5055857;28;20204;-66
2021/11/14 05:27:14;;;;;;;0.30;0.20;;;8.90;99.90;;;;;;5055828;28;20785;-65
2021/11/14 05:29:40;;;;;;;0.20;0.20;;;9.00;99.90;;;;;;5055476;28;20641;-67
2021/11/14 05:32:06;;;;;;;0.60;0.40;;;9.20;99.90;;;;;;5054647;28;20176;-66
2021/11/14 05:34:31;;;;;;;0.20;0.10;;;9.10;99.90;;;;;;5055546;28;20262;-66
2021/11/14 05:36:57;;;;;;;0.20;0.20;;;9.20;99.90;;;;;;5055641;28;20647;-66
2021/11/14 05:39:23;;;;;;;0.30;0.20;;;9.30;99.90;;;;;;5055538;28;20298;-68
2021/11/14 05:41:49;;;;;;;1.03;0.90;;;9.50;99.90;;;;;;5055610;28;20438;-67
2021/11/14 05:44:14;;;;;;;2.27;2.17;;;9.40;99.90;;;;;;5055529;28;20187;-68
2021/11/14 05:46:40;;;;;;;1.33;1.33;;;9.40;99.90;;;;;;5055586;28;20633;-67
2021/11/14 05:49:09;;;;;;;1.13;1.13;;;9.10;99.90;;;;;;5055464;28;20564;-67
2021/11/14 05:51:38;;;;;;;1.58;1.48;;;9.10;99.90;;;;;;5055694;28;20188;-68
2021/11/14 05:54:04;;;;;;;0.38;0.35;;;8.70;99.90;;;;;;5055296;28;20199;-66
2021/11/14 05:56:31;;;;;;;0.30;0.20;;;8.70;99.90;;;;;;5055317;28;20270;-67
2021/11/14 06:01:37;;;;;;;0.20;0.20;;;8.70;99.90;;;;;;5055129;28;20177;-67
2021/11/14 06:06:31;;;;;;;2.90;2.72;;;9.00;99.90;;;;;;5054588;28;20208;-66
2021/11/14 06:08:57;;;;;;;1.90;1.17;;;8.80;99.90;;;;;;5054411;28;20249;-68
2021/11/14 06:11:24;;;;;;;3.80;2.00;;;9.00;99.90;;;;;;5054532;28;20190;-66
2021/11/14 06:13:52;;;;;;;0.77;0.77;;;9.00;99.90;;;;;;5070122;28;20554;-66
2021/11/14 06:16:18;;;;;;;0.20;0.20;;;8.90;99.90;;;;;;5070162;28;20559;-66
2021/11/14 06:18:44;;;;;;;1.95;1.67;;;9.00;99.90;;;;;;5054339;28;20215;-66
2021/11/14 06:21:09;;;;;;;2.57;2.50;;;9.00;99.90;;;;;;5054618;28;20184;-66
2021/11/14 06:23:35;;;;;;;0.37;0.37;;;8.90;99.90;;;;;;5054306;28;20772;-66
2021/11/14 06:26:01;;;;;;;0.30;0.20;;;9.00;99.90;;;;;;5054251;28;20212;-66
2021/11/14 06:28:27;;;;;;;2.43;2.23;;;9.10;99.90;;;;;;5053880;28;20184;-67
2021/11/14 06:30:52;;;;;;;0.65;0.65;;;9.00;99.90;;;;;;5054406;28;20180;-67
2021/11/14 06:33:18;;;;;;;0.20;0.20;;;8.90;99.90;;;;;;5053304;28;20187;-68
2021/11/14 06:35:43;;;;;;;2.23;1.07;;;9.10;99.90;;;;;;5054036;28;20530;-68
2021/11/14 06:38:09;;;;;;;0.57;0.57;;;9.10;99.90;;;;;;5053668;28;20628;-66
2021/11/14 06:40:35;;;;;;;2.47;1.70;;;9.00;99.90;;;;;;5053012;28;20246;-68
2021/11/14 06:43:00;;;;;;;3.57;3.00;;;9.10;99.90;;;;;;5052954;28;20191;-66
2021/11/14 06:45:26;;;;;;;2.17;2.07;;;9.00;99.90;;;;;;5053932;28;20463;-67
2021/11/14 06:47:52;;;;;;;0.20;0.20;;;8.90;99.90;;;;;;5053787;28;20173;-67
2021/11/14 06:50:18;;;;;;;0.20;0.17;;;9.20;99.90;;;;;;5053800;28;20176;-67
2021/11/14 06:52:45;;;;;;;0.30;0.20;;;9.60;99.90;;;;;;5053585;28;20482;-67
2021/11/14 06:55:13;;;;;;;0.65;0.65;;;9.60;99.90;;;;;;5053640;28;20433;-67
2021/11/14 06:57:39;;;;;;;0.25;0.25;;;9.50;99.90;;;;;;5054206;28;20234;-66
2021/11/14 07:00:10;;;;;;;0.30;0.30;;;9.40;99.90;;;;;;5053772;28;20618;-68
2021/11/14 07:02:36;;;;;;;0.30;0.20;;;9.20;99.90;;;;;;5052676;28;20445;-68
2021/11/14 07:05:02;;;;;;;0.30;0.20;;;9.00;99.90;;;;;;5053561;28;20231;-66
2021/11/14 07:07:27;;;;;;;6.53;1.57;;;9.00;99.90;;;;;;5052514;28;20648;-67
2021/11/14 07:09:53;;;;;;;0.20;0.10;;;9.10;99.90;;;;;;5053358;28;20455;-68
2021/11/14 07:12:21;;;;;;;1.80;1.17;;;9.10;99.90;;;;;;5053693;28;20330;-68
2021/11/14 07:14:46;;;;;;;0.70;0.70;;;9.00;99.90;;;;;;5053545;28;20173;-68
2021/11/14 07:17:12;;;;;;;2.20;1.27;;;9.00;99.90;;;;;;5053391;28;20172;-68
2021/11/14 07:19:37;;;;;;;0.20;0.20;;;8.90;99.90;;;;;;5053253;28;20237;-66
2021/11/14 07:22:04;;;;;;;1.87;1.73;;;9.20;99.90;;;;;;5053085;28;20200;-65
2021/11/14 07:24:29;;;;;;;6.82;1.42;;;9.00;99.90;;;;;;5053393;28;20557;-65
2021/11/14 07:26:55;;;;;;;0.20;0.20;;;8.90;99.90;;;;;;5053376;28;20276;-67
2021/11/14 07:29:20;;;;;;;3.93;2.83;;;9.00;99.90;;;;;;5052229;28;20203;-67
2021/11/14 07:31:46;;;;;;;0.83;0.53;;;9.00;99.90;;;;;;5053429;28;20181;-67
2021/11/14 07:34:11;;;;;;;0.20;0.20;;;9.00;99.90;;;;;;5053315;28;20624;-66
2021/11/14 07:36:37;;;;;;;1.60;0.73;;;8.90;99.90;;;;;;5053328;28;20236;-67
2021/11/14 07:39:05;;;;;;;5.23;4.73;;;8.90;99.90;;;;;;5053100;28;20192;-66
2021/11/14 07:41:30;;;;;;;0.20;0.20;;;9.00;99.90;;;;;;5053375;28;20184;-66
2021/11/14 07:43:56;;;;;;;15.93;3.90;;;9.30;99.90;;;;;;5055123;28;20625;-66
2021/11/14 07:46:21;;;;;;;6.67;6.27;;;9.10;99.90;;;;;;5057527;28;20257;-66
2021/11/14 07:48:47;;;;;;;0.57;0.43;;;9.10;99.90;;;;;;5056389;28;20176;-66
2021/11/14 07:51:13;;;;;;;0.20;0.20;;;9.30;99.90;;;;;;5057582;28;20422;-66
2021/11/14 07:53:39;;;;;;;7.70;1.90;;;9.70;99.90;;;;;;5057487;28;20241;-67
2021/11/14 07:56:05;;;;;;;0.50;0.50;;;9.70;99.90;;;;;;5057701;28;20180;-67
2021/11/14 07:58:30;;;;;;;3.90;1.90;;;9.40;99.90;;;;;;5056356;28;20237;-65
2021/11/14 08:00:56;;;;;;;2.27;2.17;;;9.40;99.90;;;;;;5048465;28;20438;-65
2021/11/14 08:03:24;;;;;;;2.10;2.00;;;9.30;99.90;;;;;;5048000;28;20176;-65
2021/11/14 08:05:50;;;;;;;0.20;0.20;;;9.10;99.90;;;;;;5046938;28;20202;-67
2021/11/14 08:08:16;;;;;;;0.30;0.30;;;9.20;99.90;;;;;;5046003;28;20274;-68
2021/11/14 08:10:41;;;;;;;0.20;0.10;;;9.20;99.90;;;;;;5045539;28;20612;-66
2021/11/14 08:13:08;;;;;;;0.43;0.43;;;9.30;99.90;;;;;;5047788;28;20185;-68
2021/11/14 08:15:36;;;;;;;1.00;1.00;;;9.30;99.90;;;;;;5048583;28;20668;-68
2021/11/14 08:18:02;;;;;;;1.38;1.27;;;9.20;99.90;;;;;;5039310;28;20268;-68
2021/11/14 08:20:28;;;;;;;2.10;2.00;;;9.10;99.90;;;;;;5037260;28;20639;-67
2021/11/14 08:22:59;;;;;;;1.13;1.10;;;9.40;99.90;;;;;;5036605;28;20220;-67
2021/11/14 08:25:26;;;;;;;0.20;0.10;;;9.50;99.90;;;;;;5036770;28;20208;-68
2021/11/14 08:27:52;;;;;;;0.30;0.10;;;9.60;99.90;;;;;;5055145;28;20176;-68
2021/11/14 08:30:18;;;;;;;0.20;0.20;;;9.80;99.90;;;;;;5056603;28;20603;-66
2021/11/14 08:32:44;;;;;;;4.33;3.93;;;10.10;99.90;;;;;;5050205;28;20794;-68
2021/11/14 08:35:10;;;;;;;1.27;1.17;;;10.30;99.90;;;;;;5053641;28;20376;-70
2021/11/14 08:37:37;;;;;;;2.10;1.23;;;9.80;99.90;;;;;;5047202;28;20188;-70
2021/11/14 08:40:04;;;;;;;1.60;0.65;;;9.70;99.90;;;;;;5056662;28;20493;-69
2021/11/14 08:42:30;;;;;;;0.20;0.20;;;9.90;99.90;;;;;;5054623;28;20641;-69
2021/11/14 08:44:55;;;;;;;0.60;0.60;;;10.10;99.90;;;;;;5041656;28;20252;-70
2021/11/14 08:47:21;;;;;;;0.70;0.70;;;10.20;99.90;;;;;;5036496;28;20595;-69
2021/11/14 08:49:47;;;;;;;0.20;0.20;;;9.90;99.90;;;;;;5036014;28;20174;-70
2021/11/14 08:52:12;;;;;;;0.50;0.50;;;10.30;99.90;;;;;;5035964;28;20264;-70
2021/11/14 08:54:38;;;;;;;0.20;0.10;;;10.10;99.90;;;;;;5035805;28;20580;-69
2021/11/14 08:57:05;;;;;;;0.20;0.20;;;10.30;99.90;;;;;;5035368;28;20205;-69
2021/11/14 08:59:33;;;;;;;0.28;0.22;;;10.30;99.90;;;;;;5046824;28;20610;-67
2021/11/14 09:02:03;;;;;;;0.70;0.60;;;10.50;99.90;;;;;;5062778;28;20203;-67
2021/11/14 09:04:32;;;;;;;0.30;0.20;;;10.00;99.90;;;;;;5057234;28;20177;-63
2021/11/14 09:06:59;;;;;;;0.52;0.52;;;10.10;99.90;;;;;;5055917;28;20609;-66
2021/11/14 09:09:25;;;;;;;0.88;0.45;;;10.10;99.90;;;;;;5056150;28;20177;-64
2021/11/14 09:11:51;;;;;;;2.28;1.90;;;9.90;99.90;;;;;;5057585;28;20215;-64
2021/11/14 09:14:18;;;;;;;0.27;0.20;;;9.80;99.90;;;;;;5054922;28;20220;-63
2021/11/14 09:16:45;;;;;;;0.60;0.60;;;10.00;99.90;;;;;;5055302;28;20702;-63
2021/11/14 09:19:11;;;;;;;0.30;0.20;;;9.80;99.90;;;;;;5055091;28;20192;-63
2021/11/14 09:21:38;;;;;;;1.23;1.07;;;9.90;99.90;;;;;;5054281;28;20238;-63
2021/11/14 09:24:05;;;;;;;0.88;0.88;;;10.00;99.90;;;;;;5055371;28;20192;-63
2021/11/14 09:26:31;;;;;;;0.30;0.20;;;9.80;99.90;;;;;;5055057;28;20239;-65
2021/11/14 09:28:57;;;;;;;3.97;2.67;;;9.80;99.90;;;;;;5055739;28;20637;-68
2021/11/14 09:31:23;;;;;;;0.30;0.20;;;9.90;99.90;;;;;;5055518;28;20181;-66
2021/11/14 09:33:48;;;;;;;1.00;0.85;;;10.00;99.90;;;;;;5056750;28;20184;-66
2021/11/14 09:36:14;;;;;;;0.33;0.33;;;10.10;99.90;;;;;;5055521;28;20573;-65
2021/11/14 09:38:42;;;;;;;0.20;0.20;;;9.90;99.90;;;;;;5054581;28;20630;-63
2021/11/14 09:41:08;;;;;;;0.30;0.20;;;10.00;99.90;;;;;;5054953;28;20222;-66
2021/11/14 09:43:37;;;;;;;0.30;0.20;;;10.20;99.90;;;;;;5053108;28;20283;-63
2021/11/14 09:46:03;;;;;;;0.40;0.38;;;10.10;99.90;;;;;;5054654;28;20507;-68
2021/11/14 09:48:28;;;;;;;0.20;0.20;;;10.00;99.90;;;;;;5054595;28;20187;-68
2021/11/14 09:50:55;;;;;;;1.23;1.23;;;9.80;99.90;;;;;;5055566;28;20449;-68
2021/11/14 09:53:26;;;;;;;0.43;0.43;;;9.70;99.90;;;;;;5055110;28;20184;-67
2021/11/14 09:55:52;;;;;;;0.68;0.68;;;9.70;99.90;;;;;;5054694;28;20177;-69
2021/11/14 09:58:17;;;;;;;1.40;1.03;;;9.90;99.90;;;;;;5053902;28;20187;-68
2021/11/14 10:00:43;;;;;;;2.20;2.10;;;10.00;99.90;;;;;;5054386;28;20188;-66
2021/11/14 10:03:09;;;;;;;8.30;5.53;;;9.80;99.90;;;;;;5054389;28;20426;-66
2021/11/14 10:05:37;;;;;;;0.40;0.40;;;9.60;99.90;;;;;;5053231;28;20204;-64
2021/11/14 10:08:06;;;;;;;0.20;0.20;;;9.70;99.90;;;;;;5053809;28;20966;-67
2021/11/14 10:10:37;;;;;;;1.88;1.77;;;9.80;99.90;;;;;;5054162;28;20176;-67
2021/11/14 10:13:15;;;;;;;0.65;0.65;;;9.90;99.90;;;;;;5054288;28;20199;-67
2021/11/14 10:15:43;;;;;;;2.70;2.33;;;9.70;99.90;;;;;;5054276;28;20173;-66
2021/11/14 10:18:09;;;;;;;2.17;2.08;;;9.60;99.90;;;;;;5053809;28;20192;-63
2021/11/14 10:20:36;;;;;;;1.80;1.80;;;9.50;99.90;;;;;;5054089;28;20188;-62
2021/11/14 10:23:12;;;;;;;4.75;4.55;;;9.60;99.90;;;;;;5053956;28;20216;-63
2021/11/14 10:25:38;;;;;;;2.38;2.28;;;9.40;99.90;;;;;;5053478;28;20200;-63
2021/11/14 10:28:05;;;;;;;3.80;3.50;;;9.20;99.90;;;;;;5053954;28;20221;-64
2021/11/14 10:30:33;;;;;;;3.33;2.05;;;9.30;99.90;;;;;;5053914;28;20480;-65
2021/11/14 10:33:05;;;;;;;1.05;0.63;;;9.10;99.90;;;;;;5054016;28;20173;-67
2021/11/14 10:35:32;;;;;;;2.88;2.78;;;9.50;99.90;;;;;;5053962;28;20177;-65
2021/11/14 10:38:07;;;;;;;0.55;0.55;;;9.50;99.90;;;;;;5053927;28;20180;-67
2021/11/14 10:40:37;;;;;;;17.42;4.75;;;9.90;99.90;;;;;;5053793;28;20179;-64
2021/11/14 10:43:04;;;;;;;12.98;2.47;;;9.80;99.90;;;;;;5054113;28;20177;-64
2021/11/14 10:45:33;;;;;;;0.68;0.68;;;9.60;99.90;;;;;;5053975;28;20270;-66
2021/11/14 10:48:02;;;;;;;1.15;1.15;;;9.60;99.90;;;;;;5053535;28;20184;-67
2021/11/14 10:50:34;;;;;;;5.50;5.30;;;9.50;99.90;;;;;;5053677;28;20190;-64
2021/11/14 10:53:04;;;;;;;0.55;0.50;;;9.60;99.90;;;;;;5053861;28;20203;-64
2021/11/14 10:55:42;;;;;;;1.98;1.77;;;9.70;99.90;;;;;;5054287;28;20181;-65
2021/11/14 10:58:08;;;;;;;0.30;0.20;;;9.70;99.90;;;;;;5053409;28;20177;-66
2021/11/14 11:00:35;;;;;;;0.75;0.75;;;9.90;99.90;;;;;;5053436;28;20223;-67
2021/11/14 11:03:04;;;;;;;0.38;0.38;;;10.00;99.90;;;;;;5053752;28;20184;-68
2021/11/14 11:05:30;;;;;;;1.27;1.17;;;10.40;99.90;;;;;;5053749;28;20718;-67
2021/11/14 11:08:03;;;;;;;0.60;0.50;;;10.30;99.90;;;;;;5053283;28;20254;-67
2021/11/14 11:10:40;;;;;;;0.75;0.55;;;10.20;99.90;;;;;;5053526;28;20184;-67
2021/11/14 11:13:09;;;;;;;9.57;2.83;;;9.90;99.90;;;;;;5053876;28;20173;-65
2021/11/14 11:16:00;;;;;;;7.47;5.45;;;9.80;99.90;;;;;;5052526;28;20177;-66
2021/11/14 11:18:25;;;;;;;0.30;0.20;;;9.60;99.90;;;;;;5052610;28;20401;-66
2021/11/14 11:20:54;;;;;;;4.33;2.07;;;9.80;99.90;;;;;;5052570;28;20188;-66
2021/11/14 11:23:21;;;;;;;13.45;3.13;;;9.70;99.90;;;;;;5053236;28;20184;-66
2021/11/14 11:25:50;;;;;;;7.30;4.15;;;9.50;99.90;;;;;;5053386;28;20277;-67
2021/11/14 11:28:28;;;;;;;29.20;2.45;;;9.50;99.90;;;;;;5052746;28;20173;-65
2021/11/14 11:31:00;;;;;;;10.95;6.60;;;9.70;99.90;;;;;;5053309;28;20169;-67
2021/11/14 11:33:29;;;;;;;0.25;0.20;;;9.80;99.90;;;;;;5053539;28;20179;-64
2021/11/14 11:35:56;;;;;;;6.47;6.13;;;9.80;99.90;;;;;;5053570;28;20230;-65
2021/11/14 11:38:24;;;;;;;0.20;0.20;;;9.80;99.90;;;;;;5053590;28;20237;-68
2021/11/14 11:40:52;;;;;;;0.47;0.20;;;9.70;99.90;;;;;;5054697;28;20184;-65
2021/11/14 11:43:18;;;;;;;2.28;2.17;;;9.90;99.90;;;;;;5053282;28;20173;-68
2021/11/14 11:45:46;;;;;;;3.08;0.77;;;10.20;99.90;;;;;;5053272;28;20207;-69
2021/11/14 11:48:34;;;;;;;5.60;5.18;;;10.50;50.60;;;;;;5053285;28;20180;-65
2021/11/14 11:51:13;;;;;;;6.03;4.75;;;10.40;1.00;;;;;;5053877;28;20491;-64
2021/11/14 11:53:40;;;;;;;4.55;2.35;;;10.00;1.00;;;;;;5053470;28;20250;-66
2021/11/14 11:56:14;;;;;;;0.52;0.52;;;9.90;20.70;;;;;;5053577;28;20185;-65
2021/11/14 11:58:50;;;;;;;5.70;2.92;;;10.00;36.60;;;;;;5052358;28;20184;-65
2021/11/14 12:01:26;;;;;;;9.60;8.57;;;10.10;1.00;;;;;;5053344;28;20184;-65
2021/11/14 12:03:54;;;;;;;0.20;0.17;;;9.90;1.00;;;;;;5053628;28;20183;-65
2021/11/14 12:06:29;;;;;;;1.85;1.75;;;10.00;1.00;;;;;;5053308;28;20215;-64
2021/11/14 12:08:57;;;;;;;4.22;3.83;;;9.90;1.00;;;;;;5052209;28;20671;-66
2021/11/14 12:11:32;;;;;;;0.30;0.30;;;9.70;1.00;;;;;;5054401;28;20658;-65
2021/11/14 12:14:32;;;;;;;1.15;0.75;;;9.70;1.00;;;;;;5053141;28;20207;-65
2021/11/14 12:17:08;;;;;;;6.82;2.22;;;9.90;1.00;;;;;;5053495;28;20621;-63
2021/11/14 12:19:38;;;;;;;0.20;0.20;;;10.20;1.00;;;;;;5054153;28;20192;-65
2021/11/14 12:22:13;;;;;;;4.70;3.35;;;10.30;1.00;;;;;;5052213;28;20185;-65
2021/11/14 12:24:53;;;;;;;0.30;0.20;;;10.10;99.90;;;;;;5053645;28;20191;-65
2021/11/14 12:27:27;;;;;;;1.05;1.05;;;10.00;99.90;;;;;;5053861;28;20669;-65
2021/11/14 12:30:03;;;;;;;2.13;2.00;;;10.20;99.90;;;;;;5053666;28;20169;-67
2021/11/14 12:32:43;;;;;;;2.22;2.13;;;10.40;99.90;;;;;;5055553;28;20498;-67
2021/11/14 12:35:17;;;;;;;5.00;3.05;;;10.30;99.90;;;;;;5057138;28;20188;-69
2021/11/14 12:37:53;;;;;;;8.18;4.32;;;9.90;99.90;;;;;;5056884;28;20183;-68
2021/11/14 12:40:25;;;;;;;2.80;1.23;;;9.90;99.90;;;;;;5056485;28;20176;-67
2021/11/14 12:42:52;;;;;;;6.32;3.10;;;9.80;99.90;;;;;;5056296;28;20602;-68
2021/11/14 12:45:19;;;;;;;1.65;1.55;;;9.90;99.90;;;;;;5055521;28;20208;-68
2021/11/14 12:47:48;;;;;;;3.30;1.60;;;10.00;99.90;;;;;;5056448;28;20184;-66
2021/11/14 12:50:23;;;;;;;2.53;2.33;;;10.30;99.90;;;;;;5054644;28;20173;-67
2021/11/14 12:53:06;;;;;;;0.68;0.68;;;10.10;99.90;;;;;;5044310;28;20518;-66
2021/11/14 12:55:32;;;;;;;2.85;1.80;;;10.10;99.90;;;;;;5055103;28;20520;-66
2021/11/14 12:58:06;;;;;;;4.80;4.53;;;10.00;99.90;;;;;;5055820;28;20187;-66
2021/11/14 13:00:35;;;;;;;1.65;1.65;;;9.80;99.90;;;;;;5055362;28;20922;-64
2021/11/14 13:03:02;;;;;;;3.53;3.33;;;9.70;1.00;;;;;;5055979;28;20248;-64